Time;durP1;ratioP1;P1;durP2;ratioP2;P2;SDS_P1;SDS_P2;PMS_P1;PMS_P2;Temp;Humidity;BMP_temperature;BMP_pressure;BME280_temperature;BME280_humidity;BME280_pressure;Samples;Min_cycle;Max_cycle;Signal;HPM_P1;HPM_P2
2021/12/21 00:00:38;;;;;;;;;;;;;;;0.29;88.60059;102970.4;;;;-88
2021/12/21 00:05:32;;;;;;;;;;;;;;;0.25;88.50488;102966;;;;-89
2021/12/21 00:10:29;;;;;;;;;;;;;;;0.2;88.40918;102967.4;;;;-89
2021/12/21 00:15:35;;;;;;;;;;;;;;;0.14;88.41797;102964.7;;;;-89
2021/12/21 00:20:49;;;;;;;;;;;;;;;0.09;88.26855;102962.9;;;;-90
2021/12/21 00:25:21;;;;;;;;;;;;;;;0.03;88.14551;102964;;;;-90
2021/12/21 00:27:48;;;;;;;5.6;2.1;;;;;;;;;;;;;-90
2021/12/21 00:30:24;;;;;;;;;;;;;;;-0.02;88.26563;102960.3;;;;-90
2021/12/21 00:35:23;;;;;;;;;;;;;;;-0.08;88.14648;102959.5;;;;-89
2021/12/21 00:40:30;;;;;;;;;;;;;;;-0.12;88.09375;102960.5;;;;-90
2021/12/21 00:45:36;;;;;;;;;;;;;;;-0.15;88.23926;102958.3;;;;-88
2021/12/21 00:50:29;;;;;;;;;;;;;;;-0.19;88.12402;102953.8;;;;-86
2021/12/21 00:55:21;;;;;;;;;;;;;;;-0.24;88.23145;102953.5;;;;-89
2021/12/21 00:58:00;;;;;;;5.9;2.1;;;;;;;;;;;;;-89
2021/12/21 01:00:26;;;;;;;;;;;;;;;-0.31;88.26953;102953.6;;;;-90
2021/12/21 01:05:29;;;;;;;;;;;;;;;-0.34;88.10449;102958;;;;-89
2021/12/21 01:15:39;;;;;;;;;;;;;;;-0.49;88.00781;102949.3;;;;-89
2021/12/21 01:20:40;;;;;;;;;;;;;;;-0.54;88.0957;102947.6;;;;-90
2021/12/21 01:27:56;;;;;;;8;2.1;;;;;;;;;;;;;-91
2021/12/21 01:28:34;;;;;;;;;;;;;;;-0.63;87.59082;102947.2;;;;-89
2021/12/21 01:33:05;;;;;;;;;;;;;;;-0.69;87.57813;102940.4;;;;-90
2021/12/21 01:38:19;;;;;;;;;;;;;;;-0.78;87.64746;102941.1;;;;-89
2021/12/21 01:52:51;;;;;;;;;;;;;;;-0.96;87.46973;102931.6;;;;-89
2021/12/21 01:57:50;;;;;;;5.2;1.9;;;;;;;;;;;;;-90
2021/12/21 01:58:03;;;;;;;;;;;;;;;-1.03;87.47852;102928.1;;;;-90
2021/12/21 02:03:09;;;;;;;;;;;;;;;-1.07;87.3291;102926.1;;;;-89
2021/12/21 02:07:50;;;;;;;;;;;;;;;-1.13;87.34863;102929.3;;;;-90
2021/12/21 02:13:06;;;;;;;;;;;;;;;-1.19;87.37988;102924.6;;;;-90
2021/12/21 02:23:04;;;;;;;;;;;;;;;-1.31;87.32227;102924.5;;;;-90
2021/12/21 02:27:56;;;;;;;5.3;2.3;;;;;;;;;;;;;-88
2021/12/21 02:28:31;;;;;;;;;;;;;;;-1.4;87.29492;102923.6;;;;-90
2021/12/21 02:32:51;;;;;;;;;;;;;;;-1.43;87.39648;102926.5;;;;-90
2021/12/21 02:38:05;;;;;;;;;;;;;;;-1.48;87.29883;102923;;;;-90
2021/12/21 02:43:00;;;;;;;;;;;;;;;-1.51;87.25098;102919.4;;;;-90
2021/12/21 02:48:08;;;;;;;;;;;;;;;-1.58;87.25684;102916.5;;;;-90
2021/12/21 02:53:00;;;;;;;;;;;;;;;-1.63;87.11914;102911.5;;;;-90
2021/12/21 02:57:48;;;;;;;7.6;1.9;;;;;;;;;;;;;-89
2021/12/21 02:58:01;;;;;;;;;;;;;;;-1.67;87.18652;102912.3;;;;-89
2021/12/21 03:02:50;;;;;;;;;;;;;;;-1.68;87.02246;102916.6;;;;-90
2021/12/21 03:17:49;;;;;;;;;;;;;;;-1.86;87.12402;102907.5;;;;-90
2021/12/21 03:22:50;;;;;;;;;;;;;;;-1.9;86.91309;102906.6;;;;-88
2021/12/21 03:27:39;;;;;;;5.1;1.9;;;;;;;;;;;;;-86
2021/12/21 03:27:50;;;;;;;;;;;;;;;-1.92;86.90723;102902.7;;;;-86
2021/12/21 03:32:54;;;;;;;;;;;;;;;-1.94;86.88281;102904.6;;;;-86
2021/12/21 03:37:52;;;;;;;;;;;;;;;-2.02;86.86523;102907;;;;-87
2021/12/21 03:42:54;;;;;;;;;;;;;;;-2.09;86.83105;102906.6;;;;-86
2021/12/21 03:47:56;;;;;;;;;;;;;;;-2.12;86.91992;102906.9;;;;-86
2021/12/21 03:53:00;;;;;;;;;;;;;;;-2.15;86.93652;102905.5;;;;-87
2021/12/21 03:57:52;;;;;;;6.5;2.2;;;;;;;;;;;;;-86
2021/12/21 03:58:25;;;;;;;;;;;;;;;-2.18;86.74805;102895;;;;-86
2021/12/21 04:02:55;;;;;;;;;;;;;;;-2.21;86.71191;102893.9;;;;-86
2021/12/21 04:07:57;;;;;;;;;;;;;;;-2.27;86.68848;102896.1;;;;-87
2021/12/21 04:12:48;;;;;;;;;;;;;;;-2.31;86.66895;102887.2;;;;-89
2021/12/21 04:17:49;;;;;;;;;;;;;;;-2.32;86.63281;102883.8;;;;-89
2021/12/21 04:23:00;;;;;;;;;;;;;;;-2.34;86.62891;102879.2;;;;-90
2021/12/21 04:27:44;;;;;;;4.4;2.1;;;;;;;;;;;;;-89
2021/12/21 04:28:06;;;;;;;;;;;;;;;-2.38;86.61133;102890.1;;;;-90
2021/12/21 04:32:54;;;;;;;;;;;;;;;-2.42;86.53906;102886.5;;;;-90
2021/12/21 04:37:58;;;;;;;;;;;;;;;-2.45;86.44824;102890.8;;;;-90
2021/12/21 04:43:13;;;;;;;;;;;;;;;-2.48;86.35449;102889;;;;-90
2021/12/21 04:47:51;;;;;;;;;;;;;;;-2.49;86.21387;102886.9;;;;-91
2021/12/21 04:52:55;;;;;;;;;;;;;;;-2.56;86.21191;102876.5;;;;-90
2021/12/21 04:57:34;;;;;;;3.5;1.7;;;;;;;;;;;;;-90
2021/12/21 04:57:48;;;;;;;;;;;;;;;-2.58;86.05762;102871;;;;-89
2021/12/21 05:03:01;;;;;;;;;;;;;;;-2.61;85.98633;102869.4;;;;-90
2021/12/21 05:08:06;;;;;;;;;;;;;;;-2.66;85.92383;102875.3;;;;-88
2021/12/21 05:12:57;;;;;;;;;;;;;;;-2.67;86.02734;102870.2;;;;-91
2021/12/21 05:17:51;;;;;;;;;;;;;;;-2.68;85.93066;102865.6;;;;-90
2021/12/21 05:22:49;;;;;;;;;;;;;;;-2.74;85.9707;102860.5;;;;-89
2021/12/21 05:27:31;;;;;;;4.2;1.5;;;;;;;;;;;;;-90
2021/12/21 05:27:49;;;;;;;;;;;;;;;-2.77;85.87793;102862.9;;;;-89
2021/12/21 05:32:51;;;;;;;;;;;;;;;-2.8;85.81934;102861.9;;;;-90
2021/12/21 05:37:55;;;;;;;;;;;;;;;-2.84;85.86328;102867.5;;;;-90
2021/12/21 05:43:07;;;;;;;;;;;;;;;-2.87;85.81543;102873.4;;;;-89
2021/12/21 05:47:48;;;;;;;;;;;;;;;-2.92;85.81641;102872;;;;-90
2021/12/21 05:52:48;;;;;;;;;;;;;;;-2.97;85.71973;102872.3;;;;-87
2021/12/21 05:57:30;;;;;;;3.4;1.7;;;;;;;;;;;;;-86
2021/12/21 05:57:48;;;;;;;;;;;;;;;-2.99;85.74805;102873.2;;;;-88
2021/12/21 06:02:50;;;;;;;;;;;;;;;-2.99;85.54492;102878.7;;;;-87
2021/12/21 06:07:51;;;;;;;;;;;;;;;-3.02;85.50781;102884.5;;;;-86
2021/12/21 06:23:19;;;;;;;;;;;;;;;-3.1;85.59766;102873.1;;;;-90
2021/12/21 06:27:27;;;;;;;4.3;2.1;;;;;;;;;;;;;-90
2021/12/21 06:27:49;;;;;;;;;;;;;;;-3.13;85.50879;102874.9;;;;-87
2021/12/21 06:32:48;;;;;;;;;;;;;;;-3.17;85.41211;102878.7;;;;-90
2021/12/21 06:37:54;;;;;;;;;;;;;;;-3.2;85.56738;102871.9;;;;-91
2021/12/21 06:42:55;;;;;;;;;;;;;;;-3.2;85.44922;102871.8;;;;-89
2021/12/21 06:52:59;;;;;;;;;;;;;;;-3.27;85.09473;102871.9;;;;-88
2021/12/21 06:57:43;;;;;;;4.8;1.8;;;;;;;;;;;;;-90
2021/12/21 06:58:06;;;;;;;;;;;;;;;-3.31;85.32227;102870.9;;;;-90
2021/12/21 07:02:49;;;;;;;;;;;;;;;-3.32;85.21191;102872.4;;;;-90
2021/12/21 07:07:55;;;;;;;;;;;;;;;-3.33;85.4668;102877.5;;;;-90
2021/12/21 07:22:58;;;;;;;;;;;;;;;-3.44;85.04688;102884.4;;;;-90
2021/12/21 07:27:25;;;;;;;3.6;1.7;;;;;;;;;;;;;-90
2021/12/21 07:27:51;;;;;;;;;;;;;;;-3.45;85.17578;102887.1;;;;-90
2021/12/21 07:32:49;;;;;;;;;;;;;;;-3.51;84.99121;102891.4;;;;-89
2021/12/21 07:37:50;;;;;;;;;;;;;;;-3.51;84.95996;102897.4;;;;-90
2021/12/21 07:43:04;;;;;;;;;;;;;;;-3.52;84.91504;102894;;;;-90
2021/12/21 07:47:48;;;;;;;;;;;;;;;-3.54;84.85645;102896.3;;;;-90
2021/12/21 07:52:55;;;;;;;;;;;;;;;-3.56;84.78809;102905;;;;-89
2021/12/21 07:57:28;;;;;;;3.4;1.9;;;;;;;;;;;;;-88
2021/12/21 07:58:01;;;;;;;;;;;;;;;-3.58;84.87012;102906.3;;;;-89
2021/12/21 08:02:49;;;;;;;;;;;;;;;-3.57;84.77734;102914.5;;;;-89
2021/12/21 08:07:57;;;;;;;;;;;;;;;-3.6;84.8252;102911.7;;;;-89
2021/12/21 08:13:00;;;;;;;;;;;;;;;-3.61;84.90723;102915.3;;;;-88
2021/12/21 08:18:02;;;;;;;;;;;;;;;-3.6;84.8125;102916.9;;;;-86
2021/12/21 08:22:50;;;;;;;;;;;;;;;-3.59;84.88965;102915.5;;;;-89
2021/12/21 08:27:31;;;;;;;3.5;1.7;;;;;;;;;;;;;-90
2021/12/21 08:27:49;;;;;;;;;;;;;;;-3.57;84.89551;102914.4;;;;-90
2021/12/21 08:32:50;;;;;;;;;;;;;;;-3.58;84.91504;102906.3;;;;-89
2021/12/21 08:38:03;;;;;;;;;;;;;;;-3.55;84.86621;102900.8;;;;-88
2021/12/21 08:43:04;;;;;;;;;;;;;;;-3.55;84.85645;102905.4;;;;-90
2021/12/21 08:47:58;;;;;;;;;;;;;;;-3.53;84.77441;102908.7;;;;-88
2021/12/21 08:52:59;;;;;;;;;;;;;;;-3.52;84.70117;102906.3;;;;-86
2021/12/21 08:57:19;;;;;;;2.6;1.4;;;;;;;;;;;;;-86
2021/12/21 08:57:49;;;;;;;;;;;;;;;-3.5;84.66406;102909.4;;;;-86
2021/12/21 09:03:01;;;;;;;;;;;;;;;-3.43;84.72852;102915;;;;-87
2021/12/21 09:08:02;;;;;;;;;;;;;;;-3.39;84.78027;102900.6;;;;-87
2021/12/21 09:12:58;;;;;;;;;;;;;;;-3.33;84.88867;102894.1;;;;-89
2021/12/21 09:18:07;;;;;;;;;;;;;;;-3.26;84.84961;102907.2;;;;-89
2021/12/21 09:22:57;;;;;;;;;;;;;;;-3.16;84.90234;102909.3;;;;-88
2021/12/21 09:27:27;;;;;;;4.1;2.1;;;;;;;;;;;;;-88
2021/12/21 09:28:02;;;;;;;;;;;;;;;-3.05;84.99902;102925.5;;;;-89
2021/12/21 09:33:10;;;;;;;;;;;;;;;-2.96;85.03906;102931.2;;;;-88
2021/12/21 09:38:07;;;;;;;;;;;;;;;-2.87;85.2373;102932.5;;;;-87
2021/12/21 09:43:30;;;;;;;;;;;;;;;-2.76;85.38965;102942;;;;-88
2021/12/21 09:48:10;;;;;;;;;;;;;;;-2.65;85.31445;102925.5;;;;-87
2021/12/21 09:53:12;;;;;;;;;;;;;;;-2.53;85.14551;102916.1;;;;-85
2021/12/21 09:57:17;;;;;;;6.1;2.1;;;;;;;;;;;;;-88
2021/12/21 09:58:12;;;;;;;;;;;;;;;-2.44;85.34668;102904.2;;;;-88
2021/12/21 10:03:11;;;;;;;;;;;;;;;-2.3;85.63086;102895.3;;;;-86
2021/12/21 10:08:15;;;;;;;;;;;;;;;-2.18;85.6123;102892.8;;;;-86
2021/12/21 10:13:19;;;;;;;;;;;;;;;-2.06;85.59277;102895.9;;;;-87
2021/12/21 10:18:16;;;;;;;;;;;;;;;-1.95;85.60449;102891.8;;;;-87
2021/12/21 10:23:19;;;;;;;;;;;;;;;-1.8;85.66699;102889.8;;;;-87
2021/12/21 10:27:14;;;;;;;8.4;3.3;;;;;;;;;;;;;-87
2021/12/21 10:28:09;;;;;;;;;;;;;;;-1.63;85.69141;102891.2;;;;-88
2021/12/21 10:33:14;;;;;;;;;;;;;;;-1.5;85.57813;102883.6;;;;-88
2021/12/21 10:38:07;;;;;;;;;;;;;;;-1.39;85.56543;102882.8;;;;-85
2021/12/21 10:43:09;;;;;;;;;;;;;;;-1.27;85.52637;102875.2;;;;-85
2021/12/21 10:48:16;;;;;;;;;;;;;;;-1.13;85.48047;102878.4;;;;-87
2021/12/21 10:53:19;;;;;;;;;;;;;;;-1.02;85.46875;102868.1;;;;-86
2021/12/21 10:57:15;;;;;;;9.1;3.8;;;;;;;;;;;;;-86
2021/12/21 10:58:22;;;;;;;;;;;;;;;-0.93;85.47754;102870.3;;;;-86
2021/12/21 11:03:09;;;;;;;;;;;;;;;-0.85;85.51367;102864.4;;;;-89
2021/12/21 11:08:18;;;;;;;;;;;;;;;-0.77;85.5498;102871.3;;;;-86
2021/12/21 11:13:25;;;;;;;;;;;;;;;-0.7;85.62891;102870.8;;;;-85
2021/12/21 11:18:12;;;;;;;;;;;;;;;-0.64;85.74121;102858.6;;;;-86
2021/12/21 11:23:20;;;;;;;;;;;;;;;-0.57;85.80762;102858;;;;-84
2021/12/21 11:27:10;;;;;;;8.1;3.8;;;;;;;;;;;;;-84
2021/12/21 11:28:08;;;;;;;;;;;;;;;-0.49;85.81152;102850.4;;;;-83
2021/12/21 11:33:10;;;;;;;;;;;;;;;-0.43;85.9209;102844.5;;;;-83
2021/12/21 11:38:10;;;;;;;;;;;;;;;-0.35;85.92676;102841.6;;;;-84
2021/12/21 11:43:16;;;;;;;;;;;;;;;-0.28;85.96289;102833.8;;;;-86
2021/12/21 11:48:16;;;;;;;;;;;;;;;-0.2;85.98828;102835.5;;;;-79
2021/12/21 11:53:10;;;;;;;;;;;;;;;-0.11;85.94336;102826.8;;;;-84
2021/12/21 12:04:02;;;;;;;;;;;;;;;0.16;85.74902;102809.4;;;;-77
2021/12/21 12:08:56;;;;;;;;;;;;;;;0.25;85.60742;102806.3;;;;-77
2021/12/21 12:14:04;;;;;;;;;;;;;;;0.35;85.54102;102803.7;;;;-77
2021/12/21 12:18:54;;;;;;;;;;;;;;;0.43;85.46875;102794.6;;;;-77
2021/12/21 12:23:55;;;;;;;;;;;;;;;0.51;85.26855;102790.4;;;;-77
2021/12/21 12:27:11;;;;;;;10.2;4.4;;;;;;;;;;;;;-76
2021/12/21 12:28:55;;;;;;;;;;;;;;;0.58;84.80762;102787.5;;;;-76
2021/12/21 12:33:55;;;;;;;;;;;;;;;0.62;84.78223;102787.7;;;;-77
2021/12/21 12:39:00;;;;;;;;;;;;;;;0.66;84.78223;102794.5;;;;-79
2021/12/21 12:49:16;;;;;;;;;;;;;;;0.71;85.20215;102795.5;;;;-87
2021/12/21 12:56:14;;;;;;;;;;;;;;;0.7;85.31836;102787.3;;;;-87
2021/12/21 12:57:05;;;;;;;10.6;3.7;;;;;;;;;;;;;-87
2021/12/21 13:01:41;;;;;;;;;;;;;;;0.71;85.32031;102781.7;;;;-88
2021/12/21 13:06:11;;;;;;;;;;;;;;;0.86;84.84375;102772.7;;;;-78
2021/12/21 13:11:32;;;;;;;;;;;;;;;0.83;84.71777;102767.5;;;;-87
2021/12/21 13:16:22;;;;;;;;;;;;;;;0.84;85.11914;102767.6;;;;-85
2021/12/21 13:21:10;;;;;;;;;;;;;;;0.8;85.08887;102763.3;;;;-84
2021/12/21 13:26:15;;;;;;;;;;;;;;;0.78;85.3457;102756.6;;;;-86
2021/12/21 13:27:05;;;;;;;7.8;3.1;;;;;;;;;;;;;-85
2021/12/21 13:31:24;;;;;;;;;;;;;;;0.76;85.375;102752;;;;-84
2021/12/21 13:41:42;;;;;;;;;;;;;;;;;;;;;
2021/12/21 13:51:00;;;;;;;;;;;;;;;0.76;85.5459;102740.9;;;;-89
2021/12/21 13:57:15;;;;;;;6.5;2.9;;;;;;;;;;;;;-87
2021/12/21 14:03:03;;;;;;;;;;;;;;;0.72;85.67676;102748.3;;;;-87
2021/12/21 14:12:46;;;;;;;;;;;;;;;0.69;85.99512;102737.9;;;;-87
2021/12/21 14:27:35;;;;;;;6.7;2.8;;;;;;;;;;;;;-89
2021/12/21 14:32:42;;;;;;;;;;;;;;;0.58;86.38477;102746.8;;;;-86
2021/12/21 14:37:37;;;;;;;;;;;;;;;0.56;86.50879;102753.8;;;;-86
2021/12/21 14:47:35;;;;;;;;;;;;;;;0.5;86.69043;102754.5;;;;-88
2021/12/21 15:28:01;;;;;;;6.7;2.9;;;;;;;;;;;;;-87
2021/12/21 15:49:35;;;;;;;;;;;;;;;-0.07;87.2334;102775.1;;;;-84
2021/12/21 15:54:30;;;;;;;;;;;;;;;-0.13;87.23242;102780.3;;;;-87
2021/12/21 15:57:28;;;;;;;8.6;3.4;;;;;;;;;;;;;-86
2021/12/21 16:04:18;;;;;;;;;;;;;;;-0.23;87.28613;102780.5;;;;-87
2021/12/21 16:09:12;;;;;;;;;;;;;;;-0.28;87.17969;102783.7;;;;-89
2021/12/21 16:19:21;;;;;;;;;;;;;;;-0.37;87.12012;102781;;;;-90
2021/12/21 16:24:34;;;;;;;;;;;;;;;-0.42;87.10645;102777.9;;;;-88
2021/12/21 16:27:19;;;;;;;8.4;3.3;;;;;;;;;;;;;-90
2021/12/21 16:44:38;;;;;;;;;;;;;;;-0.64;87.16113;102776.6;;;;-85
2021/12/21 16:49:48;;;;;;;;;;;;;;;;;;;;;
2021/12/21 16:54:45;;;;;;;;;;;;;;;-0.72;87.18555;102781.1;;;;-86
2021/12/21 16:57:00;;;;;;;6.9;3;;;;;;;;;;;;;-86
2021/12/21 16:59:45;;;;;;;;;;;;;;;-0.79;87.11816;102787.4;;;;-82
2021/12/21 17:04:47;;;;;;;;;;;;;;;-0.85;87.1377;102789.3;;;;-86
2021/12/21 17:10:03;;;;;;;;;;;;;;;-0.9;87.0957;102795.9;;;;-86
2021/12/21 17:14:38;;;;;;;;;;;;;;;-0.96;87.00977;102787.4;;;;-87
2021/12/21 17:19:38;;;;;;;;;;;;;;;-1.03;86.99512;102791.9;;;;-87
2021/12/21 17:24:39;;;;;;;;;;;;;;;-1.11;86.81738;102801.5;;;;-84
2021/12/21 17:26:53;;;;;;;5.8;3;;;;;;;;;;;;;-83
2021/12/21 17:29:42;;;;;;;;;;;;;;;-1.17;86.84473;102801.1;;;;-87
2021/12/21 17:34:40;;;;;;;;;;;;;;;-1.25;86.7334;102800.2;;;;-84
2021/12/21 17:39:38;;;;;;;;;;;;;;;-1.31;86.59375;102802.1;;;;-85
2021/12/21 17:44:50;;;;;;;;;;;;;;;-1.39;86.52148;102803.7;;;;-85
2021/12/21 17:49:40;;;;;;;;;;;;;;;-1.43;86.53516;102800.7;;;;-85
2021/12/21 17:54:43;;;;;;;;;;;;;;;-1.48;86.53711;102804.3;;;;-84
2021/12/21 17:56:52;;;;;;;6.5;3.1;;;;;;;;;;;;;-85
2021/12/21 17:59:38;;;;;;;;;;;;;;;-1.53;86.61133;102798.4;;;;-86
2021/12/21 18:04:42;;;;;;;;;;;;;;;-1.55;86.64063;102800.2;;;;-85
2021/12/21 18:09:41;;;;;;;;;;;;;;;-1.57;86.62598;102800.2;;;;-85
2021/12/21 18:14:39;;;;;;;;;;;;;;;-1.57;86.77637;102803.1;;;;-84
2021/12/21 18:19:38;;;;;;;;;;;;;;;-1.62;86.72363;102800.3;;;;-82
2021/12/21 18:24:40;;;;;;;;;;;;;;;-1.64;86.76172;102803.7;;;;-84
2021/12/21 18:26:55;;;;;;;7.3;3;;;;;;;;;;;;;-84
2021/12/21 18:29:39;;;;;;;;;;;;;;;-1.66;86.80273;102800.7;;;;-83
2021/12/21 18:34:39;;;;;;;;;;;;;;;-1.69;86.67676;102801.7;;;;-82
2021/12/21 18:39:46;;;;;;;;;;;;;;;-1.73;86.5625;102792;;;;-86
2021/12/21 18:44:49;;;;;;;;;;;;;;;-1.8;86.51563;102798.4;;;;-84
2021/12/21 18:49:37;;;;;;;;;;;;;;;-1.84;86.48633;102795.5;;;;-84
2021/12/21 18:54:47;;;;;;;;;;;;;;;-1.91;86.39648;102791.1;;;;-86
2021/12/21 18:56:52;;;;;;;5.9;2.7;;;;;;;;;;;;;-85
2021/12/21 18:59:48;;;;;;;;;;;;;;;-1.96;86.40625;102789;;;;-85
2021/12/21 19:04:50;;;;;;;;;;;;;;;-2.03;86.13672;102794.8;;;;-84
2021/12/21 19:09:42;;;;;;;;;;;;;;;-2.09;86.15723;102793.9;;;;-85
2021/12/21 19:14:53;;;;;;;;;;;;;;;-2.14;86.04785;102795.6;;;;-84
2021/12/21 19:24:48;;;;;;;;;;;;;;;-2.25;86.10059;102792;;;;-83
2021/12/21 19:26:48;;;;;;;8.6;3;;;;;;;;;;;;;-85
2021/12/21 19:36:04;;;;;;;;;;;;;;;-2.34;85.97559;102798;;;;-83
2021/12/21 19:41:03;;;;;;;;;;;;;;;-2.38;85.91504;102802;;;;-83
2021/12/21 19:46:13;;;;;;;;;;;;;;;-2.4;85.96484;102800.4;;;;-84
2021/12/21 19:56:04;;;;;;;;;;;;;;;-2.44;86.03027;102802.6;;;;-82
2021/12/21 19:56:48;;;;;;;5.8;2.9;;;;;;;;;;;;;-83
2021/12/21 20:01:09;;;;;;;;;;;;;;;-2.45;86.24414;102799.9;;;;-84
2021/12/21 20:06:18;;;;;;;;;;;;;;;-2.45;86.30859;102798.9;;;;-86
2021/12/21 20:11:08;;;;;;;;;;;;;;;-2.43;86.36621;102799.8;;;;-82
2021/12/21 20:27:12;;;;;;;9.6;3.2;;;;;;;;;;;;;-86
2021/12/21 21:12:27;;;;;;;;;;;;;;;-2.42;86.83789;102790.8;;;;-87
2021/12/21 21:21:28;;;;;;;;;;;;;;;-2.43;86.93359;102791.1;;;;-87
2021/12/21 21:26:22;;;;;;;;;;;;;;;-2.44;86.84473;102795.1;;;;-86
2021/12/21 21:26:59;;;;;;;10.9;4.1;;;;;;;;;;;;;-86
2021/12/21 21:31:44;;;;;;;;;;;;;;;-2.44;87.03906;102795.3;;;;-83
2021/12/21 21:41:36;;;;;;;;;;;;;;;-2.44;87.20996;102791.5;;;;-85
2021/12/21 21:51:20;;;;;;;;;;;;;;;-2.41;87.0752;102784.3;;;;-85
2021/12/21 21:56:46;;;;;;;9.4;4.3;;;;;;;;;;;;;-85
2021/12/21 21:59:13;;;;;;;;;;;;;;;-2.42;87.2334;102783.5;;;;-86
2021/12/21 22:16:30;;;;;;;;;;;;;;;-2.42;87.13672;102783.8;;;;-86
2021/12/21 22:21:18;;;;;;;;;;;;;;;-2.43;87.20996;102776.4;;;;-86
2021/12/21 22:27:16;;;;;;;13.6;4.9;;;;;;;;;;;;;-87
2021/12/21 22:31:30;;;;;;;;;;;;;;;-2.43;87.20117;102783.1;;;;-86
2021/12/21 22:36:27;;;;;;;;;;;;;;;-2.44;87.18848;102780.3;;;;-86
2021/12/21 22:41:29;;;;;;;;;;;;;;;-2.45;87.09082;102782;;;;-86
2021/12/21 22:46:16;;;;;;;;;;;;;;;-2.47;87.04199;102784.7;;;;-86
2021/12/21 22:51:23;;;;;;;;;;;;;;;-2.5;87.02637;102783.3;;;;-85
2021/12/21 22:56:19;;;;;;;;;;;;;;;-2.52;87.10742;102775.9;;;;-86
2021/12/21 22:56:36;;;;;;;13.5;5.1;;;;;;;;;;;;;-86
2021/12/21 23:01:27;;;;;;;;;;;;;;;-2.51;87.09863;102770.5;;;;-86
2021/12/21 23:06:32;;;;;;;;;;;;;;;-2.52;87.21289;102764.6;;;;-87
2021/12/21 23:24:19;;;;;;;;;;;;;;;-2.53;87.21289;102777.3;;;;-89
2021/12/21 23:29:31;;;;;;;;;;;;;;;-2.53;87.14844;102779.8;;;;-90
2021/12/21 23:34:11;;;;;;;;;;;;;;;-2.55;87.03809;102781.4;;;;-90
2021/12/21 23:39:09;;;;;;;;;;;;;;;-2.56;87.08789;102781;;;;-89
2021/12/21 23:44:20;;;;;;;;;;;;;;;-2.59;87.09082;102771;;;;-89
2021/12/21 23:49:18;;;;;;;;;;;;;;;-2.6;87.19824;102772.1;;;;-89
2021/12/21 23:54:10;;;;;;;;;;;;;;;-2.61;87.14258;102770.1;;;;-89
2021/12/21 23:56:32;;;;;;;10.2;4.8;;;;;;;;;;;;;-91
2021/12/21 23:59:10;;;;;;;;;;;;;;;-2.61;87.19434;102768.8;;;;-90
